createdAt,value
2023-05-02T00:02:19.893Z,0.98
2023-05-02T00:04:47.021Z,0.80
2023-05-02T00:07:14.021Z,0.65
2023-05-02T00:09:41.466Z,0.75
2023-05-02T00:12:08.405Z,0.63
2023-05-02T00:14:35.319Z,0.80
2023-05-02T00:17:02.541Z,0.80
2023-05-02T00:19:29.477Z,0.80
2023-05-02T00:21:56.562Z,0.73
2023-05-02T00:24:23.517Z,0.70
2023-05-02T00:26:50.392Z,0.77
2023-05-02T00:29:18.010Z,0.70
2023-05-02T00:31:44.946Z,0.95
2023-05-02T00:34:11.935Z,0.70
2023-05-02T00:36:38.939Z,0.60
2023-05-02T00:39:05.842Z,0.60
2023-05-02T00:41:32.876Z,0.90
2023-05-02T00:43:59.823Z,0.80
2023-05-02T00:46:27.332Z,0.80
2023-05-02T00:48:54.539Z,0.82
2023-05-02T00:51:21.584Z,0.55
2023-05-02T00:53:49.302Z,0.80
2023-05-02T00:56:16.303Z,0.77
2023-05-02T00:58:45.598Z,0.80
2023-05-02T01:01:57.627Z,0.70
2023-05-02T01:04:38.099Z,0.75
2023-05-02T01:07:47.075Z,0.80
2023-05-02T01:10:53.202Z,0.63
2023-05-02T01:13:28.263Z,0.80
2023-05-02T01:16:00.882Z,0.80
2023-05-02T01:18:34.040Z,0.80
2023-05-02T01:21:09.141Z,0.90
2023-05-02T01:24:02.808Z,0.88
2023-05-02T01:26:59.087Z,0.80
2023-05-02T01:29:31.387Z,0.85
2023-05-02T01:32:01.078Z,0.60
2023-05-02T01:34:29.759Z,0.70
2023-05-02T01:36:59.463Z,0.93
2023-05-02T01:39:28.854Z,0.90
2023-05-02T01:41:59.331Z,0.70
2023-05-02T01:44:30.442Z,0.90
2023-05-02T01:47:00.436Z,0.90
2023-05-02T01:49:29.387Z,0.75
2023-05-02T01:52:01.062Z,0.88
2023-05-02T01:54:28.424Z,0.85
2023-05-02T01:56:56.934Z,0.80
2023-05-02T01:59:25.762Z,0.80
2023-05-02T02:01:54.208Z,0.70
2023-05-02T02:04:23.650Z,0.80
2023-05-02T02:07:03.977Z,0.80
2023-05-02T02:09:32.016Z,1.02
2023-05-02T02:12:22.076Z,1.02
2023-05-02T02:14:57.790Z,1.10
2023-05-02T02:17:32.102Z,1.00
2023-05-02T02:20:05.405Z,0.90
2023-05-02T02:22:38.948Z,1.08
2023-05-02T02:25:09.214Z,0.93
2023-05-02T02:27:38.340Z,0.88
2023-05-02T02:30:06.823Z,0.98
2023-05-02T02:32:33.745Z,0.90
2023-05-02T02:35:03.005Z,0.85
2023-05-02T02:37:45.907Z,1.00
2023-05-02T02:40:30.577Z,0.95
2023-05-02T02:43:31.745Z,0.90
2023-05-02T02:46:25.415Z,0.90
2023-05-02T02:49:22.776Z,0.90
2023-05-02T02:53:00.795Z,0.90
2023-05-02T02:55:36.686Z,0.90
2023-05-02T02:58:54.685Z,1.08
2023-05-02T03:01:25.638Z,0.95
2023-05-02T03:03:55.180Z,0.93
2023-05-02T03:06:22.421Z,0.90
2023-05-02T03:08:49.381Z,1.00
2023-05-02T03:11:16.514Z,1.00
2023-05-02T03:13:43.441Z,1.10
2023-05-02T03:16:36.920Z,0.80
2023-05-02T03:19:05.169Z,1.00
2023-05-02T03:21:33.057Z,1.00
2023-05-02T03:24:04.610Z,1.13
2023-05-02T03:26:31.534Z,0.90
2023-05-02T03:28:58.729Z,1.00
2023-05-02T03:31:26.833Z,0.90
2023-05-02T03:33:54.456Z,1.02
2023-05-02T03:36:22.256Z,1.00
2023-05-02T03:38:49.240Z,0.90
2023-05-02T03:41:16.153Z,0.88
2023-05-02T03:43:43.169Z,1.05
2023-05-02T03:46:11.921Z,0.90
2023-05-02T03:48:39.056Z,1.00
2023-05-02T03:51:08.292Z,0.90
2023-05-02T03:53:35.559Z,1.02
2023-05-02T03:56:03.043Z,0.80
2023-05-02T03:58:29.978Z,0.90
2023-05-02T04:00:56.953Z,0.88
2023-05-02T04:03:24.254Z,0.90
2023-05-02T04:05:51.790Z,0.95
2023-05-02T04:08:19.326Z,1.00
2023-05-02T04:10:46.856Z,1.00
2023-05-02T04:13:13.756Z,0.90
2023-05-02T04:15:40.800Z,1.10
2023-05-02T04:18:07.823Z,0.95
2023-05-02T04:20:34.926Z,1.00
2023-05-02T04:23:01.962Z,0.90
2023-05-02T04:25:29.283Z,0.90
2023-05-02T04:27:56.907Z,1.00
2023-05-02T04:30:23.879Z,1.10
2023-05-02T04:32:51.078Z,1.00
2023-05-02T04:35:18.337Z,0.93
2023-05-02T04:37:45.426Z,1.10
2023-05-02T04:40:13.210Z,1.13
2023-05-02T04:42:40.481Z,1.02
2023-05-02T04:45:08.197Z,0.90
2023-05-02T04:47:35.181Z,1.10
2023-05-02T04:50:02.805Z,1.08
2023-05-02T04:52:32.185Z,1.00
2023-05-02T04:54:59.218Z,1.00
2023-05-02T04:57:26.194Z,1.00
2023-05-02T04:59:53.104Z,1.00
2023-05-02T05:02:20.080Z,0.80
2023-05-02T05:04:47.185Z,0.93
2023-05-02T05:07:15.795Z,1.00
2023-05-02T05:09:42.717Z,1.00
2023-05-02T05:12:10.121Z,1.00
2023-05-02T05:14:37.172Z,1.10
2023-05-02T05:17:04.209Z,0.90
2023-05-02T05:19:31.151Z,1.02
2023-05-02T05:21:58.081Z,1.15
2023-05-02T05:24:25.053Z,1.10
2023-05-02T05:26:52.633Z,1.10
2023-05-02T05:29:19.577Z,1.00
2023-05-02T05:31:46.619Z,1.00
2023-05-02T05:34:14.650Z,1.00
2023-05-02T05:36:41.869Z,1.00
2023-05-02T05:39:08.934Z,0.88
2023-05-02T05:41:36.092Z,0.82
2023-05-02T05:44:03.051Z,1.00
2023-05-02T05:46:30.029Z,0.90
2023-05-02T05:48:57.083Z,0.80
2023-05-02T05:51:24.376Z,0.93
2023-05-02T05:53:51.981Z,0.98
2023-05-02T05:56:33.210Z,1.00
2023-05-02T05:59:00.127Z,0.88
2023-05-02T06:01:27.075Z,0.80
2023-05-02T06:03:54.054Z,0.80
2023-05-02T06:06:21.230Z,0.90
2023-05-02T06:08:48.258Z,1.23
2023-05-02T06:11:15.148Z,0.85
2023-05-02T06:13:42.431Z,1.00
2023-05-02T06:16:09.490Z,1.00
2023-05-02T06:18:36.858Z,1.15
2023-05-02T06:21:05.538Z,1.55
2023-05-02T06:23:33.418Z,1.50
2023-05-02T06:26:02.204Z,1.10
2023-05-02T06:28:29.997Z,1.00
2023-05-02T06:31:03.056Z,1.05
2023-05-02T06:33:31.298Z,1.10
2023-05-02T06:36:00.794Z,1.10
2023-05-02T06:38:29.281Z,1.10
2023-05-02T06:40:56.468Z,1.00
2023-05-02T06:43:23.677Z,0.90
2023-05-02T06:45:54.882Z,1.10
2023-05-02T06:48:22.445Z,1.00
2023-05-02T06:50:54.047Z,1.08
2023-05-02T06:53:21.742Z,1.20
2023-05-02T06:55:49.861Z,0.77
2023-05-02T06:58:17.622Z,0.95
2023-05-02T07:00:45.642Z,1.00
2023-05-02T07:03:12.726Z,0.95
2023-05-02T07:05:39.909Z,0.85
2023-05-02T07:08:09.259Z,0.98
2023-05-02T07:10:37.020Z,0.80
2023-05-02T07:13:04.228Z,0.82
2023-05-02T07:15:31.319Z,1.27
2023-05-02T07:17:58.718Z,1.15
2023-05-02T07:20:26.099Z,1.00
2023-05-02T07:22:53.827Z,1.00
2023-05-02T07:25:21.295Z,1.00
2023-05-02T07:27:48.375Z,0.90
2023-05-02T07:30:15.434Z,1.00
2023-05-02T07:32:42.509Z,0.80
2023-05-02T07:35:09.818Z,0.95
2023-05-02T07:37:36.975Z,1.00
2023-05-02T07:40:04.936Z,1.00
2023-05-02T07:42:32.598Z,0.77
2023-05-02T07:45:00.166Z,1.00
2023-05-02T07:47:27.568Z,0.95
2023-05-02T07:49:55.571Z,0.82
2023-05-02T07:52:22.831Z,0.80
2023-05-02T07:54:50.488Z,0.95
2023-05-02T07:57:18.434Z,1.10
2023-05-02T07:59:45.598Z,1.27
2023-05-02T08:02:14.048Z,1.20
2023-05-02T08:04:41.839Z,1.10
2023-05-02T08:07:08.996Z,0.80
2023-05-02T08:09:36.507Z,1.20
2023-05-02T08:12:03.581Z,1.20
2023-05-02T08:14:31.540Z,1.17
2023-05-02T08:17:00.154Z,2.47
2023-05-02T08:19:27.933Z,2.85
2023-05-02T08:21:59.153Z,3.22
2023-05-02T08:24:26.254Z,2.58
2023-05-02T08:26:53.204Z,2.47
2023-05-02T08:29:20.335Z,1.90
2023-05-02T08:31:47.273Z,2.50
2023-05-02T08:34:17.379Z,1.70
2023-05-02T08:36:44.318Z,1.40
2023-05-02T08:39:11.826Z,1.80
2023-05-02T08:41:39.121Z,1.70
2023-05-02T08:44:10.471Z,1.77
2023-05-02T08:46:43.533Z,2.08
2023-05-02T08:49:16.724Z,2.53
2023-05-02T08:51:49.424Z,3.70
2023-05-02T08:54:18.113Z,2.60
2023-05-02T08:56:46.387Z,3.08
2023-05-02T08:59:13.355Z,3.70
2023-05-02T09:01:46.050Z,2.30
2023-05-02T09:04:14.732Z,2.30
2023-05-02T09:06:41.790Z,2.08
2023-05-02T09:09:09.322Z,2.33
2023-05-02T09:11:37.369Z,1.90
2023-05-02T09:14:16.050Z,2.47
2023-05-02T09:16:43.561Z,1.95
2023-05-02T09:19:11.291Z,1.92
2023-05-02T09:21:41.588Z,2.17
2023-05-02T09:24:21.009Z,1.65
2023-05-02T09:27:04.247Z,1.50
2023-05-02T09:29:38.759Z,1.67
2023-05-02T09:32:07.208Z,1.63
2023-05-02T09:34:34.633Z,1.30
2023-05-02T09:37:04.073Z,1.52
2023-05-02T09:39:31.571Z,1.00
2023-05-02T09:41:59.796Z,1.50
2023-05-02T09:44:37.521Z,1.23
2023-05-02T09:47:06.744Z,1.40
2023-05-02T09:49:46.123Z,1.35
2023-05-02T09:52:16.800Z,1.45
2023-05-02T09:54:46.351Z,1.38
2023-05-02T09:57:13.684Z,1.40
2023-05-02T09:59:41.704Z,1.00
2023-05-02T10:02:11.909Z,1.20
2023-05-02T10:04:39.990Z,1.48
2023-05-02T10:07:11.005Z,1.40
2023-05-02T10:09:47.719Z,1.88
2023-05-02T10:12:17.259Z,2.35
2023-05-02T10:14:53.322Z,2.03
2023-05-02T10:17:31.863Z,2.28
2023-05-02T10:20:06.296Z,1.95
2023-05-02T10:22:37.305Z,1.55
2023-05-02T10:25:04.958Z,1.60
2023-05-02T10:27:32.812Z,1.80
2023-05-02T10:30:01.682Z,1.55
2023-05-02T10:32:29.726Z,1.65
2023-05-02T10:35:05.822Z,1.83
2023-05-02T10:37:36.253Z,1.90
2023-05-02T10:40:04.173Z,2.00
2023-05-02T10:42:35.192Z,1.65
2023-05-02T10:45:02.416Z,1.52
2023-05-02T10:47:31.953Z,2.00
2023-05-02T10:50:04.854Z,2.65
2023-05-02T10:52:38.250Z,1.95
2023-05-02T10:55:20.125Z,2.53
2023-05-02T10:58:01.984Z,2.83
2023-05-02T11:00:32.639Z,2.47
2023-05-02T11:03:01.213Z,2.05
2023-05-02T11:05:29.207Z,2.10
2023-05-02T11:08:23.189Z,1.85
2023-05-02T11:10:50.393Z,1.90
2023-05-02T11:13:49.636Z,1.40
2023-05-02T11:16:17.446Z,1.70
2023-05-02T11:19:01.311Z,1.90
2023-05-02T11:21:32.702Z,1.65
2023-05-02T11:24:37.744Z,1.88
2023-05-02T11:27:33.891Z,2.13
2023-05-02T11:30:09.802Z,1.88
2023-05-02T11:32:46.946Z,1.80
2023-05-02T11:35:32.870Z,2.03
2023-05-02T11:38:05.270Z,1.92
2023-05-02T11:40:33.060Z,1.50
2023-05-02T11:43:01.416Z,1.75
2023-05-02T11:45:42.927Z,1.58
2023-05-02T11:48:13.538Z,1.50
2023-05-02T11:50:50.101Z,1.88
2023-05-02T11:53:26.743Z,1.95
2023-05-02T11:56:02.891Z,1.90
2023-05-02T11:58:33.782Z,1.65
2023-05-02T12:01:17.514Z,2.00
2023-05-02T12:03:45.670Z,1.35
2023-05-02T12:06:16.701Z,1.77
2023-05-02T12:08:45.296Z,1.75
2023-05-02T12:11:16.726Z,1.60
2023-05-02T12:13:50.003Z,1.58
2023-05-02T12:16:19.057Z,2.30
2023-05-02T12:18:48.400Z,1.73
2023-05-02T12:21:17.285Z,1.88
2023-05-02T12:23:45.027Z,1.88
2023-05-02T12:26:32.699Z,2.28
2023-05-02T12:29:00.954Z,1.48
2023-05-02T12:31:31.154Z,1.63
2023-05-02T12:34:00.492Z,1.65
2023-05-02T12:36:28.907Z,1.70
2023-05-02T12:39:01.621Z,2.20
2023-05-02T12:41:43.622Z,2.22
2023-05-02T12:44:10.975Z,1.77
2023-05-02T12:46:38.850Z,1.48
2023-05-02T12:49:14.787Z,1.23
2023-05-02T12:51:42.259Z,1.80
2023-05-02T12:54:20.954Z,1.40
2023-05-02T12:56:49.024Z,1.67
2023-05-02T12:59:29.741Z,1.58
2023-05-02T13:01:57.905Z,2.50
2023-05-02T13:04:42.256Z,2.28
2023-05-02T13:07:09.712Z,1.83
2023-05-02T13:09:37.567Z,2.17
2023-05-02T13:12:06.024Z,1.85
2023-05-02T13:14:33.166Z,2.15
2023-05-02T13:17:00.603Z,1.55
2023-05-02T13:19:31.293Z,1.60
2023-05-02T13:21:59.260Z,1.88
2023-05-02T13:24:26.694Z,2.63
2023-05-02T13:26:53.676Z,1.95
2023-05-02T13:29:20.766Z,1.80
2023-05-02T13:31:47.852Z,1.55
2023-05-02T13:34:14.841Z,1.70
2023-05-02T13:36:46.367Z,1.42
2023-05-02T13:39:14.125Z,1.90
2023-05-02T13:41:41.706Z,2.20
2023-05-02T13:44:09.543Z,1.92
2023-05-02T13:46:37.882Z,1.63
2023-05-02T13:49:06.175Z,1.77
2023-05-02T13:51:33.912Z,1.88
2023-05-02T13:54:01.740Z,1.70
2023-05-02T13:56:28.982Z,2.03
2023-05-02T13:58:56.609Z,1.73
2023-05-02T14:01:26.722Z,1.80
2023-05-02T14:03:54.606Z,2.03
2023-05-02T14:06:21.850Z,1.50
2023-05-02T14:08:48.883Z,1.50
2023-05-02T14:11:16.554Z,1.42
2023-05-02T14:13:44.378Z,1.90
2023-05-02T14:16:11.833Z,2.00
2023-05-02T14:18:38.795Z,1.80
2023-05-02T14:21:05.983Z,2.03
2023-05-02T14:23:33.978Z,1.48
2023-05-02T14:26:02.394Z,1.30
2023-05-02T14:28:29.499Z,1.60
2023-05-02T14:30:56.666Z,1.80
2023-05-02T14:33:24.344Z,1.75
2023-05-02T14:35:51.566Z,2.25
2023-05-02T14:38:18.934Z,1.85
2023-05-02T14:40:46.691Z,2.00
2023-05-02T14:43:13.947Z,1.60
2023-05-02T14:45:41.637Z,1.70
2023-05-02T14:48:09.658Z,1.80
2023-05-02T14:50:41.212Z,1.85
2023-05-02T14:53:08.328Z,1.50
2023-05-02T14:55:39.850Z,1.40
2023-05-02T14:58:09.126Z,1.63
2023-05-02T15:00:37.940Z,2.00
2023-05-02T15:03:07.560Z,2.65
2023-05-02T15:05:36.376Z,2.50
2023-05-02T15:08:03.419Z,2.30
2023-05-02T15:10:30.917Z,2.30
2023-05-02T15:12:58.282Z,1.83
2023-05-02T15:15:25.498Z,1.95
2023-05-02T15:17:53.259Z,1.98
2023-05-02T15:20:20.797Z,1.60
2023-05-02T15:22:48.251Z,1.90
2023-05-02T15:25:18.143Z,2.00
2023-05-02T15:27:45.444Z,2.17
2023-05-02T15:30:12.830Z,1.67
2023-05-02T15:32:39.852Z,1.90
2023-05-02T15:35:11.370Z,1.60
2023-05-02T15:37:38.560Z,1.77
2023-05-02T15:40:06.886Z,1.70
2023-05-02T15:42:40.491Z,1.58
2023-05-02T15:45:13.847Z,2.03
2023-05-02T15:47:42.169Z,1.80
2023-05-02T15:50:11.499Z,1.52
2023-05-02T15:52:38.607Z,1.90
2023-05-02T15:55:06.301Z,2.00
2023-05-02T15:57:33.496Z,2.22
2023-05-02T16:00:01.081Z,2.10
2023-05-02T16:02:28.283Z,1.80
2023-05-02T16:04:57.211Z,1.92
2023-05-02T16:07:24.354Z,1.90
2023-05-02T16:09:52.045Z,1.92
2023-05-02T16:12:19.809Z,2.10
2023-05-02T16:14:47.291Z,1.95
2023-05-02T16:17:14.412Z,2.00
2023-05-02T16:19:41.333Z,1.70
2023-05-02T16:22:08.409Z,2.00
2023-05-02T16:24:35.869Z,1.90
2023-05-02T16:27:03.252Z,1.80
2023-05-02T16:29:30.717Z,1.80
2023-05-02T16:31:58.003Z,1.73
2023-05-02T16:34:25.188Z,1.63
2023-05-02T16:36:53.043Z,1.80
2023-05-02T16:39:20.177Z,1.80
2023-05-02T16:41:48.682Z,1.35
2023-05-02T16:44:15.961Z,1.55
2023-05-02T16:46:43.582Z,1.88
2023-05-02T16:49:10.634Z,2.25
2023-05-02T16:51:37.662Z,1.98
2023-05-02T16:54:05.276Z,2.25
2023-05-02T16:56:32.960Z,2.22
2023-05-02T16:59:00.167Z,1.75
2023-05-02T17:01:27.662Z,1.90
2023-05-02T17:03:54.913Z,1.80
2023-05-02T17:06:23.060Z,1.70
2023-05-02T17:08:50.568Z,2.50
2023-05-02T17:11:18.446Z,1.85
2023-05-02T17:13:47.302Z,1.65
2023-05-02T17:16:14.891Z,1.60
2023-05-02T17:18:50.742Z,1.75
2023-05-02T17:21:18.237Z,1.90
2023-05-02T17:23:45.576Z,1.75
2023-05-02T17:26:15.801Z,1.85
2023-05-02T17:28:45.938Z,1.60
2023-05-02T17:31:13.146Z,1.50
2023-05-02T17:33:40.581Z,1.60
2023-05-02T17:36:08.031Z,1.50
2023-05-02T17:38:35.142Z,1.40
2023-05-02T17:41:02.043Z,1.20
2023-05-02T17:43:28.987Z,1.52
2023-05-02T17:45:56.098Z,1.70
2023-05-02T17:48:24.033Z,1.60
2023-05-02T17:50:51.263Z,1.38
2023-05-02T17:53:18.452Z,1.23
2023-05-02T17:55:45.856Z,1.30
2023-05-02T17:58:12.805Z,1.30
2023-05-02T18:00:40.369Z,1.80
2023-05-02T18:03:08.344Z,1.25
2023-05-02T18:05:44.127Z,1.73
2023-05-02T18:08:11.525Z,1.90
2023-05-02T18:10:40.126Z,1.45
2023-05-02T18:13:07.368Z,1.50
2023-05-02T18:15:34.484Z,1.27
2023-05-02T18:18:01.640Z,1.15
2023-05-02T18:20:28.623Z,1.52
2023-05-02T18:22:59.005Z,1.30
2023-05-02T18:25:26.294Z,1.27
2023-05-02T18:27:53.403Z,1.30
2023-05-02T18:30:20.738Z,1.23
2023-05-02T18:32:47.758Z,1.40
2023-05-02T18:35:14.797Z,1.17
2023-05-02T18:37:41.820Z,1.40
2023-05-02T18:40:10.093Z,1.30
2023-05-02T18:42:37.351Z,1.23
2023-05-02T18:45:05.462Z,1.40
2023-05-02T18:47:33.710Z,1.08
2023-05-02T18:50:01.243Z,1.30
2023-05-02T18:52:33.806Z,1.15
2023-05-02T18:55:06.248Z,1.35
2023-05-02T18:57:36.380Z,1.30
2023-05-02T19:00:06.434Z,1.40
2023-05-02T19:02:35.604Z,1.30
2023-05-02T19:05:09.397Z,1.30
2023-05-02T19:07:38.467Z,1.25
2023-05-02T19:10:06.269Z,1.30
2023-05-02T19:12:33.358Z,1.30
2023-05-02T19:15:01.509Z,1.10
2023-05-02T19:17:28.770Z,1.23
2023-05-02T19:19:58.146Z,1.30
2023-05-02T19:22:27.707Z,0.95
2023-05-02T19:24:55.241Z,1.50
2023-05-02T19:27:22.427Z,1.30
2023-05-02T19:29:54.318Z,1.10
2023-05-02T19:32:22.655Z,1.23
2023-05-02T19:34:50.250Z,1.10
2023-05-02T19:37:19.232Z,1.00
2023-05-02T19:39:46.562Z,0.90
2023-05-02T19:42:13.622Z,1.23
2023-05-02T19:44:40.825Z,1.10
2023-05-02T19:47:07.917Z,1.40
2023-05-02T19:49:35.067Z,1.05
2023-05-02T19:52:03.699Z,1.30
2023-05-02T19:54:31.053Z,1.00
2023-05-02T19:56:58.013Z,1.20
2023-05-02T19:59:24.963Z,1.10
2023-05-02T20:01:51.960Z,1.13
2023-05-02T20:04:20.196Z,1.20
2023-05-02T20:06:47.326Z,1.10
2023-05-02T20:09:14.813Z,1.10
2023-05-02T20:11:41.758Z,1.10
2023-05-02T20:14:08.820Z,1.08
2023-05-02T20:16:36.249Z,1.20
2023-05-02T20:19:04.326Z,1.30
2023-05-02T20:21:31.549Z,1.27
2023-05-02T20:23:58.580Z,1.08
2023-05-02T20:26:26.644Z,1.20
2023-05-02T20:28:53.922Z,1.15
2023-05-02T20:31:20.905Z,0.90
2023-05-02T20:33:48.050Z,1.00
2023-05-02T20:36:17.334Z,1.05
2023-05-02T20:38:47.903Z,1.10
2023-05-02T20:41:14.914Z,1.00
2023-05-02T20:43:44.787Z,0.98
2023-05-02T20:46:16.687Z,1.20
2023-05-02T20:48:43.817Z,1.00
2023-05-02T20:51:14.829Z,1.00
2023-05-02T20:53:41.927Z,1.10
2023-05-02T20:56:08.917Z,1.23
2023-05-02T20:58:35.890Z,1.20
2023-05-02T21:01:03.734Z,1.20
2023-05-02T21:03:32.027Z,1.00
2023-05-02T21:05:59.651Z,0.90
2023-05-02T21:08:26.975Z,1.20
2023-05-02T21:10:54.252Z,1.10
2023-05-02T21:13:22.540Z,1.00
2023-05-02T21:15:50.154Z,1.08
2023-05-02T21:18:17.507Z,1.00
2023-05-02T21:20:44.598Z,1.02
2023-05-02T21:23:12.008Z,1.02
2023-05-02T21:25:39.349Z,1.13
2023-05-02T21:28:06.954Z,0.93
2023-05-02T21:30:35.017Z,1.10
2023-05-02T21:33:02.161Z,1.05
2023-05-02T21:35:33.291Z,0.95
2023-05-02T21:38:00.794Z,1.10
2023-05-02T21:40:29.410Z,0.75
2023-05-02T21:42:56.423Z,0.90
2023-05-02T21:45:23.295Z,1.00
2023-05-02T21:47:53.351Z,1.08
2023-05-02T21:50:20.459Z,0.90
2023-05-02T21:52:47.364Z,1.00
2023-05-02T21:55:14.405Z,1.02
2023-05-02T21:57:41.778Z,1.00
2023-05-02T22:00:13.078Z,0.80
2023-05-02T22:02:40.198Z,0.90
2023-05-02T22:05:08.418Z,0.80
2023-05-02T22:07:35.372Z,1.17
2023-05-02T22:10:02.704Z,1.20
2023-05-02T22:12:29.971Z,0.93
2023-05-02T22:14:57.121Z,0.90
2023-05-02T22:17:24.184Z,1.10
2023-05-02T22:19:55.188Z,0.88
2023-05-02T22:22:22.104Z,1.05
2023-05-02T22:24:49.154Z,1.00
2023-05-02T22:27:16.274Z,0.85
2023-05-02T22:29:43.401Z,0.90
2023-05-02T22:32:10.401Z,1.08
2023-05-02T22:34:37.411Z,1.08
2023-05-02T22:37:04.435Z,0.80
2023-05-02T22:39:31.650Z,0.90
2023-05-02T22:41:59.843Z,1.10
2023-05-02T22:44:26.905Z,1.15
2023-05-02T22:46:55.064Z,0.90
2023-05-02T22:49:22.565Z,0.90
2023-05-02T22:51:49.473Z,1.00
2023-05-02T22:54:16.813Z,1.02
2023-05-02T22:56:44.118Z,0.90
2023-05-02T22:59:11.057Z,1.08
2023-05-02T23:01:37.919Z,0.90
2023-05-02T23:04:07.622Z,0.95
2023-05-02T23:06:35.237Z,1.00
2023-05-02T23:09:02.237Z,1.00
2023-05-02T23:11:29.237Z,0.90
2023-05-02T23:13:58.620Z,1.08
2023-05-02T23:16:25.849Z,1.00
2023-05-02T23:18:52.848Z,0.90
2023-05-02T23:21:19.748Z,1.00
2023-05-02T23:23:46.719Z,1.00
2023-05-02T23:26:13.774Z,0.98
2023-05-02T23:28:40.684Z,0.90
2023-05-02T23:31:08.542Z,1.27
2023-05-02T23:33:36.432Z,0.88
2023-05-02T23:36:04.077Z,0.90
2023-05-02T23:38:31.982Z,1.08
2023-05-02T23:40:59.115Z,1.10
2023-05-02T23:43:26.765Z,0.90
2023-05-02T23:45:53.818Z,1.10
2023-05-02T23:48:20.798Z,0.90
2023-05-02T23:50:47.950Z,0.90
2023-05-02T23:53:14.857Z,1.08
2023-05-02T23:55:41.760Z,0.98
2023-05-02T23:58:08.772Z,0.90
